Henkhaus, Texas
Current Conditions -  °F | °C
As of 4:35 PM on Tuesday 21 Oct 2014 (Local Time) from KT20 Reporting Station
Clear Clear  
Wind Chill: 84°   Ceiling: Unl
Heat Index: 84°   Visibility: 10mi
Dew Point: 50°   Wind: 7mph
Humidity: 31%   Direction: 90°E
Pressure: 29.97"   Gusts: NA
Location:  29.4258°N, 97.1461°W
Report Text: KT20 212135Z AUTO 09006KT 10SM CLR 29/10 A2997 RMK AO2 T02880101
Loading
Personal Weather Stations






























Interactive Weather Map
Tropical Storm Tracking
New forecast layout! Learn more

10-Day Weather Forecast

Advertisements
Track Severe Weather on mobile